sensor_id;sensor_type;location;lat;lon;timestamp;P1;P2;P0
64627;PMS5003;68467;50.960;0.314;2023-04-25T00:01:22;9;9;
64627;PMS5003;68467;50.960;0.314;2023-04-25T00:03:49;10;9;
64627;PMS5003;68467;50.960;0.314;2023-04-25T00:06:16;13;11;
64627;PMS5003;68467;50.960;0.314;2023-04-25T00:08:43;11;9;
64627;PMS5003;68467;50.960;0.314;2023-04-25T00:11:11;13;13;
64627;PMS5003;68467;50.960;0.314;2023-04-25T00:13:38;9;8;
64627;PMS5003;68467;50.960;0.314;2023-04-25T00:16:06;14;13;
64627;PMS5003;68467;50.960;0.314;2023-04-25T00:18:33;12;10;
64627;PMS5003;68467;50.960;0.314;2023-04-25T00:21:00;13;12;
64627;PMS5003;68467;50.960;0.314;2023-04-25T00:23:27;14;12;
64627;PMS5003;68467;50.960;0.314;2023-04-25T00:25:55;12;10;
64627;PMS5003;68467;50.960;0.314;2023-04-25T00:28:22;10;10;
64627;PMS5003;68467;50.960;0.314;2023-04-25T00:30:49;12;10;
64627;PMS5003;68467;50.960;0.314;2023-04-25T00:33:16;12;12;
64627;PMS5003;68467;50.960;0.314;2023-04-25T00:35:44;12;10;
64627;PMS5003;68467;50.960;0.314;2023-04-25T00:38:10;10;9;
64627;PMS5003;68467;50.960;0.314;2023-04-25T00:40:37;14;12;
64627;PMS5003;68467;50.960;0.314;2023-04-25T00:43:05;13;10;
64627;PMS5003;68467;50.960;0.314;2023-04-25T00:45:33;9;9;
64627;PMS5003;68467;50.960;0.314;2023-04-25T00:48:05;13;12;
64627;PMS5003;68467;50.960;0.314;2023-04-25T00:50:33;14;13;
64627;PMS5003;68467;50.960;0.314;2023-04-25T00:53:00;14;10;
64627;PMS5003;68467;50.960;0.314;2023-04-25T00:55:27;13;10;
64627;PMS5003;68467;50.960;0.314;2023-04-25T00:57:54;12;10;
64627;PMS5003;68467;50.960;0.314;2023-04-25T01:00:21;10;10;
64627;PMS5003;68467;50.960;0.314;2023-04-25T01:02:48;10;8;
64627;PMS5003;68467;50.960;0.314;2023-04-25T01:05:15;14;14;
64627;PMS5003;68467;50.960;0.314;2023-04-25T01:07:43;13;12;
64627;PMS5003;68467;50.960;0.314;2023-04-25T01:10:10;8;8;
64627;PMS5003;68467;50.960;0.314;2023-04-25T01:12:37;11;9;
64627;PMS5003;68467;50.960;0.314;2023-04-25T01:15:04;10;10;
64627;PMS5003;68467;50.960;0.314;2023-04-25T01:17:33;8;7;
64627;PMS5003;68467;50.960;0.314;2023-04-25T01:20:02;13;13;
64627;PMS5003;68467;50.960;0.314;2023-04-25T01:22:31;9;8;
64627;PMS5003;68467;50.960;0.314;2023-04-25T01:24:59;12;10;
64627;PMS5003;68467;50.960;0.314;2023-04-25T01:27:27;9;9;
64627;PMS5003;68467;50.960;0.314;2023-04-25T01:29:54;12;10;
64627;PMS5003;68467;50.960;0.314;2023-04-25T01:32:23;8;8;
64627;PMS5003;68467;50.960;0.314;2023-04-25T01:34:50;8;8;
64627;PMS5003;68467;50.960;0.314;2023-04-25T01:37:17;8;7;
64627;PMS5003;68467;50.960;0.314;2023-04-25T01:39:45;10;9;
64627;PMS5003;68467;50.960;0.314;2023-04-25T01:42:12;14;10;
64627;PMS5003;68467;50.960;0.314;2023-04-25T01:44:39;7;6;
64627;PMS5003;68467;50.960;0.314;2023-04-25T01:47:07;8;7;
64627;PMS5003;68467;50.960;0.314;2023-04-25T01:49:34;7;7;
64627;PMS5003;68467;50.960;0.314;2023-04-25T01:52:01;9;8;
64627;PMS5003;68467;50.960;0.314;2023-04-25T01:54:28;10;9;
64627;PMS5003;68467;50.960;0.314;2023-04-25T01:56:57;10;10;
64627;PMS5003;68467;50.960;0.314;2023-04-25T01:59:24;8;8;
64627;PMS5003;68467;50.960;0.314;2023-04-25T02:01:51;11;9;
64627;PMS5003;68467;50.960;0.314;2023-04-25T02:04:18;9;8;
64627;PMS5003;68467;50.960;0.314;2023-04-25T02:06:45;12;11;
64627;PMS5003;68467;50.960;0.314;2023-04-25T02:09:16;11;9;
64627;PMS5003;68467;50.960;0.314;2023-04-25T02:11:44;9;8;
64627;PMS5003;68467;50.960;0.314;2023-04-25T02:14:11;7;7;
64627;PMS5003;68467;50.960;0.314;2023-04-25T02:16:38;7;6;
64627;PMS5003;68467;50.960;0.314;2023-04-25T02:19:53;7;7;
64627;PMS5003;68467;50.960;0.314;2023-04-25T02:22:20;8;8;
64627;PMS5003;68467;50.960;0.314;2023-04-25T02:24:48;9;8;
64627;PMS5003;68467;50.960;0.314;2023-04-25T02:27:15;8;7;
64627;PMS5003;68467;50.960;0.314;2023-04-25T02:29:48;6;6;
64627;PMS5003;68467;50.960;0.314;2023-04-25T02:32:16;11;10;
64627;PMS5003;68467;50.960;0.314;2023-04-25T02:34:43;7;6;
64627;PMS5003;68467;50.960;0.314;2023-04-25T02:37:10;8;8;
64627;PMS5003;68467;50.960;0.314;2023-04-25T02:39:37;6;6;
64627;PMS5003;68467;50.960;0.314;2023-04-25T02:42:04;9;7;
64627;PMS5003;68467;50.960;0.314;2023-04-25T02:44:31;9;7;
64627;PMS5003;68467;50.960;0.314;2023-04-25T02:46:58;7;7;
64627;PMS5003;68467;50.960;0.314;2023-04-25T02:49:25;5;5;
64627;PMS5003;68467;50.960;0.314;2023-04-25T02:51:53;10;10;
64627;PMS5003;68467;50.960;0.314;2023-04-25T02:54:20;8;7;
64627;PMS5003;68467;50.960;0.314;2023-04-25T02:56:47;8;6;
64627;PMS5003;68467;50.960;0.314;2023-04-25T02:59:15;8;8;
64627;PMS5003;68467;50.960;0.314;2023-04-25T03:01:42;7;7;
64627;PMS5003;68467;50.960;0.314;2023-04-25T03:04:09;6;6;
64627;PMS5003;68467;50.960;0.314;2023-04-25T03:06:36;11;10;
64627;PMS5003;68467;50.960;0.314;2023-04-25T03:09:03;5;5;
64627;PMS5003;68467;50.960;0.314;2023-04-25T03:11:31;9;7;
64627;PMS5003;68467;50.960;0.314;2023-04-25T03:13:59;9;7;
64627;PMS5003;68467;50.960;0.314;2023-04-25T03:16:26;10;10;
64627;PMS5003;68467;50.960;0.314;2023-04-25T03:18:53;10;10;
64627;PMS5003;68467;50.960;0.314;2023-04-25T03:21:20;7;7;
64627;PMS5003;68467;50.960;0.314;2023-04-25T03:23:55;7;7;
64627;PMS5003;68467;50.960;0.314;2023-04-25T03:26:22;9;9;
64627;PMS5003;68467;50.960;0.314;2023-04-25T03:28:50;17;14;
64627;PMS5003;68467;50.960;0.314;2023-04-25T03:31:22;7;7;
64627;PMS5003;68467;50.960;0.314;2023-04-25T03:33:50;11;10;
64627;PMS5003;68467;50.960;0.314;2023-04-25T03:36:17;7;7;
64627;PMS5003;68467;50.960;0.314;2023-04-25T03:38:44;11;9;
64627;PMS5003;68467;50.960;0.314;2023-04-25T03:41:11;11;10;
64627;PMS5003;68467;50.960;0.314;2023-04-25T03:43:39;9;9;
64627;PMS5003;68467;50.960;0.314;2023-04-25T03:46:06;10;10;
64627;PMS5003;68467;50.960;0.314;2023-04-25T03:48:33;12;10;
64627;PMS5003;68467;50.960;0.314;2023-04-25T03:51:00;11;10;
64627;PMS5003;68467;50.960;0.314;2023-04-25T03:53:27;8;8;
64627;PMS5003;68467;50.960;0.314;2023-04-25T03:56:26;8;6;
64627;PMS5003;68467;50.960;0.314;2023-04-25T03:58:53;9;8;
64627;PMS5003;68467;50.960;0.314;2023-04-25T04:01:20;6;6;
64627;PMS5003;68467;50.960;0.314;2023-04-25T04:03:48;12;11;
64627;PMS5003;68467;50.960;0.314;2023-04-25T04:06:16;8;8;
64627;PMS5003;68467;50.960;0.314;2023-04-25T04:08:44;6;6;
64627;PMS5003;68467;50.960;0.314;2023-04-25T04:11:11;8;5;
64627;PMS5003;68467;50.960;0.314;2023-04-25T04:13:38;10;10;
64627;PMS5003;68467;50.960;0.314;2023-04-25T04:16:05;9;9;
64627;PMS5003;68467;50.960;0.314;2023-04-25T04:18:32;6;6;
64627;PMS5003;68467;50.960;0.314;2023-04-25T04:21:01;8;8;
64627;PMS5003;68467;50.960;0.314;2023-04-25T04:23:29;6;6;
64627;PMS5003;68467;50.960;0.314;2023-04-25T04:25:56;10;10;
64627;PMS5003;68467;50.960;0.314;2023-04-25T04:28:23;8;8;
64627;PMS5003;68467;50.960;0.314;2023-04-25T04:30:51;9;8;
64627;PMS5003;68467;50.960;0.314;2023-04-25T04:33:17;10;9;
64627;PMS5003;68467;50.960;0.314;2023-04-25T04:35:45;5;5;
64627;PMS5003;68467;50.960;0.314;2023-04-25T04:38:13;8;6;
64627;PMS5003;68467;50.960;0.314;2023-04-25T04:40:40;8;8;
64627;PMS5003;68467;50.960;0.314;2023-04-25T04:43:07;6;6;
64627;PMS5003;68467;50.960;0.314;2023-04-25T04:45:34;6;6;
64627;PMS5003;68467;50.960;0.314;2023-04-25T04:48:08;12;9;
64627;PMS5003;68467;50.960;0.314;2023-04-25T04:50:35;9;9;
64627;PMS5003;68467;50.960;0.314;2023-04-25T04:53:03;6;6;
64627;PMS5003;68467;50.960;0.314;2023-04-25T04:55:31;5;4;
64627;PMS5003;68467;50.960;0.314;2023-04-25T04:57:59;8;6;
64627;PMS5003;68467;50.960;0.314;2023-04-25T05:00:26;5;5;
64627;PMS5003;68467;50.960;0.314;2023-04-25T05:02:54;6;6;
64627;PMS5003;68467;50.960;0.314;2023-04-25T05:05:21;8;6;
64627;PMS5003;68467;50.960;0.314;2023-04-25T05:07:48;9;8;
64627;PMS5003;68467;50.960;0.314;2023-04-25T05:10:16;6;5;
64627;PMS5003;68467;50.960;0.314;2023-04-25T05:12:44;5;4;
64627;PMS5003;68467;50.960;0.314;2023-04-25T05:15:11;9;8;
64627;PMS5003;68467;50.960;0.314;2023-04-25T05:17:38;5;5;
64627;PMS5003;68467;50.960;0.314;2023-04-25T05:20:06;8;6;
64627;PMS5003;68467;50.960;0.314;2023-04-25T05:22:34;6;6;
64627;PMS5003;68467;50.960;0.314;2023-04-25T05:25:03;3;3;
64627;PMS5003;68467;50.960;0.314;2023-04-25T05:27:31;3;3;
64627;PMS5003;68467;50.960;0.314;2023-04-25T05:29:58;8;5;
64627;PMS5003;68467;50.960;0.314;2023-04-25T05:32:25;8;8;
64627;PMS5003;68467;50.960;0.314;2023-04-25T05:34:53;6;5;
64627;PMS5003;68467;50.960;0.314;2023-04-25T05:37:20;5;5;
64627;PMS5003;68467;50.960;0.314;2023-04-25T05:39:48;9;8;
64627;PMS5003;68467;50.960;0.314;2023-04-25T05:42:15;6;6;
64627;PMS5003;68467;50.960;0.314;2023-04-25T05:44:42;6;5;
64627;PMS5003;68467;50.960;0.314;2023-04-25T05:47:11;5;5;
64627;PMS5003;68467;50.960;0.314;2023-04-25T05:49:38;8;6;
64627;PMS5003;68467;50.960;0.314;2023-04-25T05:52:06;6;5;
64627;PMS5003;68467;50.960;0.314;2023-04-25T05:54:33;9;6;
64627;PMS5003;68467;50.960;0.314;2023-04-25T05:57:00;8;6;
64627;PMS5003;68467;50.960;0.314;2023-04-25T05:59:29;6;6;
64627;PMS5003;68467;50.960;0.314;2023-04-25T06:01:57;8;8;
64627;PMS5003;68467;50.960;0.314;2023-04-25T06:04:25;8;6;
64627;PMS5003;68467;50.960;0.314;2023-04-25T06:06:52;6;6;
64627;PMS5003;68467;50.960;0.314;2023-04-25T06:09:19;8;6;
64627;PMS5003;68467;50.960;0.314;2023-04-25T06:11:48;8;6;
64627;PMS5003;68467;50.960;0.314;2023-04-25T06:14:15;6;5;
64627;PMS5003;68467;50.960;0.314;2023-04-25T06:16:43;8;8;
64627;PMS5003;68467;50.960;0.314;2023-04-25T06:19:10;9;9;
64627;PMS5003;68467;50.960;0.314;2023-04-25T06:21:37;8;8;
64627;PMS5003;68467;50.960;0.314;2023-04-25T06:24:05;4;4;
64627;PMS5003;68467;50.960;0.314;2023-04-25T06:26:33;9;6;
64627;PMS5003;68467;50.960;0.314;2023-04-25T06:29:00;11;9;
64627;PMS5003;68467;50.960;0.314;2023-04-25T06:31:28;6;5;
64627;PMS5003;68467;50.960;0.314;2023-04-25T06:33:55;8;6;
64627;PMS5003;68467;50.960;0.314;2023-04-25T06:36:23;8;6;
64627;PMS5003;68467;50.960;0.314;2023-04-25T06:38:50;5;4;
64627;PMS5003;68467;50.960;0.314;2023-04-25T06:41:18;7;7;
64627;PMS5003;68467;50.960;0.314;2023-04-25T06:43:45;6;6;
64627;PMS5003;68467;50.960;0.314;2023-04-25T06:46:12;10;9;
64627;PMS5003;68467;50.960;0.314;2023-04-25T06:48:40;5;5;
64627;PMS5003;68467;50.960;0.314;2023-04-25T06:51:07;6;5;
64627;PMS5003;68467;50.960;0.314;2023-04-25T06:53:35;10;9;
64627;PMS5003;68467;50.960;0.314;2023-04-25T06:56:02;6;6;
64627;PMS5003;68467;50.960;0.314;2023-04-25T06:58:30;6;5;
64627;PMS5003;68467;50.960;0.314;2023-04-25T07:00:58;6;6;
64627;PMS5003;68467;50.960;0.314;2023-04-25T07:03:25;6;6;
64627;PMS5003;68467;50.960;0.314;2023-04-25T07:05:53;5;4;
64627;PMS5003;68467;50.960;0.314;2023-04-25T07:08:20;6;6;
64627;PMS5003;68467;50.960;0.314;2023-04-25T07:10:47;7;6;
64627;PMS5003;68467;50.960;0.314;2023-04-25T07:13:15;5;5;
64627;PMS5003;68467;50.960;0.314;2023-04-25T07:15:43;6;6;
64627;PMS5003;68467;50.960;0.314;2023-04-25T07:18:11;4;4;
64627;PMS5003;68467;50.960;0.314;2023-04-25T07:20:38;5;4;
64627;PMS5003;68467;50.960;0.314;2023-04-25T07:23:05;4;4;
64627;PMS5003;68467;50.960;0.314;2023-04-25T07:25:32;8;7;
64627;PMS5003;68467;50.960;0.314;2023-04-25T07:28:00;6;4;
64627;PMS5003;68467;50.960;0.314;2023-04-25T07:30:27;4;4;
64627;PMS5003;68467;50.960;0.314;2023-04-25T07:32:54;4;4;
64627;PMS5003;68467;50.960;0.314;2023-04-25T07:35:21;7;6;
64627;PMS5003;68467;50.960;0.314;2023-04-25T07:37:48;6;5;
64627;PMS5003;68467;50.960;0.314;2023-04-25T07:40:16;7;5;
64627;PMS5003;68467;50.960;0.314;2023-04-25T07:42:43;6;5;
64627;PMS5003;68467;50.960;0.314;2023-04-25T07:45:10;7;6;
64627;PMS5003;68467;50.960;0.314;2023-04-25T07:47:38;6;5;
64627;PMS5003;68467;50.960;0.314;2023-04-25T07:50:06;4;3;
64627;PMS5003;68467;50.960;0.314;2023-04-25T07:52:34;3;3;
64627;PMS5003;68467;50.960;0.314;2023-04-25T07:55:02;5;4;
64627;PMS5003;68467;50.960;0.314;2023-04-25T07:57:30;6;5;
64627;PMS5003;68467;50.960;0.314;2023-04-25T07:59:57;5;5;
64627;PMS5003;68467;50.960;0.314;2023-04-25T08:02:24;5;5;
64627;PMS5003;68467;50.960;0.314;2023-04-25T08:04:51;4;4;
64627;PMS5003;68467;50.960;0.314;2023-04-25T08:07:18;5;5;
64627;PMS5003;68467;50.960;0.314;2023-04-25T08:09:45;4;4;
64627;PMS5003;68467;50.960;0.314;2023-04-25T08:12:13;7;6;
64627;PMS5003;68467;50.960;0.314;2023-04-25T08:14:40;7;7;
64627;PMS5003;68467;50.960;0.314;2023-04-25T08:17:09;6;6;
64627;PMS5003;68467;50.960;0.314;2023-04-25T08:19:36;6;6;
64627;PMS5003;68467;50.960;0.314;2023-04-25T08:22:03;4;4;
64627;PMS5003;68467;50.960;0.314;2023-04-25T08:24:31;7;6;
64627;PMS5003;68467;50.960;0.314;2023-04-25T08:26:59;4;4;
64627;PMS5003;68467;50.960;0.314;2023-04-25T08:29:27;5;5;
64627;PMS5003;68467;50.960;0.314;2023-04-25T08:31:54;6;5;
64627;PMS5003;68467;50.960;0.314;2023-04-25T08:34:21;5;5;
64627;PMS5003;68467;50.960;0.314;2023-04-25T08:36:48;6;6;
64627;PMS5003;68467;50.960;0.314;2023-04-25T08:39:16;6;6;
64627;PMS5003;68467;50.960;0.314;2023-04-25T08:41:43;5;4;
64627;PMS5003;68467;50.960;0.314;2023-04-25T08:44:11;5;4;
64627;PMS5003;68467;50.960;0.314;2023-04-25T08:46:38;5;5;
64627;PMS5003;68467;50.960;0.314;2023-04-25T08:49:07;5;5;
64627;PMS5003;68467;50.960;0.314;2023-04-25T08:51:36;5;5;
64627;PMS5003;68467;50.960;0.314;2023-04-25T08:54:11;4;4;
64627;PMS5003;68467;50.960;0.314;2023-04-25T08:56:40;5;4;
64627;PMS5003;68467;50.960;0.314;2023-04-25T08:59:10;5;5;
64627;PMS5003;68467;50.960;0.314;2023-04-25T09:01:38;5;5;
64627;PMS5003;68467;50.960;0.314;2023-04-25T09:04:07;5;4;
64627;PMS5003;68467;50.960;0.314;2023-04-25T09:06:35;4;3;
64627;PMS5003;68467;50.960;0.314;2023-04-25T09:09:03;4;4;
64627;PMS5003;68467;50.960;0.314;2023-04-25T09:11:31;5;5;
64627;PMS5003;68467;50.960;0.314;2023-04-25T09:14:15;7;6;
64627;PMS5003;68467;50.960;0.314;2023-04-25T09:17:00;5;4;
64627;PMS5003;68467;50.960;0.314;2023-04-25T09:19:29;4;4;
64627;PMS5003;68467;50.960;0.314;2023-04-25T09:21:59;6;6;
64627;PMS5003;68467;50.960;0.314;2023-04-25T09:24:35;7;5;
64627;PMS5003;68467;50.960;0.314;2023-04-25T09:27:04;6;6;
64627;PMS5003;68467;50.960;0.314;2023-04-25T09:29:31;4;4;
64627;PMS5003;68467;50.960;0.314;2023-04-25T09:32:17;6;5;
64627;PMS5003;68467;50.960;0.314;2023-04-25T09:34:46;4;4;
64627;PMS5003;68467;50.960;0.314;2023-04-25T09:37:17;5;4;
64627;PMS5003;68467;50.960;0.314;2023-04-25T09:39:46;5;4;
64627;PMS5003;68467;50.960;0.314;2023-04-25T09:42:14;4;3;
64627;PMS5003;68467;50.960;0.314;2023-04-25T09:44:42;5;5;
64627;PMS5003;68467;50.960;0.314;2023-04-25T09:47:11;5;5;
64627;PMS5003;68467;50.960;0.314;2023-04-25T09:49:40;5;5;
64627;PMS5003;68467;50.960;0.314;2023-04-25T09:52:09;6;4;
64627;PMS5003;68467;50.960;0.314;2023-04-25T09:54:40;4;4;
64627;PMS5003;68467;50.960;0.314;2023-04-25T09:57:10;5;5;
64627;PMS5003;68467;50.960;0.314;2023-04-25T09:59:41;4;4;
64627;PMS5003;68467;50.960;0.314;2023-04-25T10:02:10;5;5;
64627;PMS5003;68467;50.960;0.314;2023-04-25T10:04:44;5;5;
64627;PMS5003;68467;50.960;0.314;2023-04-25T10:07:14;5;5;
64627;PMS5003;68467;50.960;0.314;2023-04-25T10:09:43;7;6;
64627;PMS5003;68467;50.960;0.314;2023-04-25T10:12:14;6;5;
64627;PMS5003;68467;50.960;0.314;2023-04-25T10:14:43;6;6;
64627;PMS5003;68467;50.960;0.314;2023-04-25T10:17:11;4;4;
64627;PMS5003;68467;50.960;0.314;2023-04-25T10:19:39;3;3;
64627;PMS5003;68467;50.960;0.314;2023-04-25T10:22:07;6;6;
64627;PMS5003;68467;50.960;0.314;2023-04-25T10:24:38;3;3;
64627;PMS5003;68467;50.960;0.314;2023-04-25T10:27:07;2;2;
64627;PMS5003;68467;50.960;0.314;2023-04-25T10:29:35;3;3;
64627;PMS5003;68467;50.960;0.314;2023-04-25T10:32:02;4;4;
64627;PMS5003;68467;50.960;0.314;2023-04-25T10:34:37;3;3;
64627;PMS5003;68467;50.960;0.314;2023-04-25T10:37:08;6;6;
64627;PMS5003;68467;50.960;0.314;2023-04-25T10:39:38;4;4;
64627;PMS5003;68467;50.960;0.314;2023-04-25T10:42:06;5;5;
64627;PMS5003;68467;50.960;0.314;2023-04-25T10:44:34;4;3;
64627;PMS5003;68467;50.960;0.314;2023-04-25T10:47:05;3;3;
64627;PMS5003;68467;50.960;0.314;2023-04-25T10:49:34;6;4;
64627;PMS5003;68467;50.960;0.314;2023-04-25T10:52:11;4;3;
64627;PMS5003;68467;50.960;0.314;2023-04-25T10:54:40;3;3;
64627;PMS5003;68467;50.960;0.314;2023-04-25T10:57:08;3;3;
64627;PMS5003;68467;50.960;0.314;2023-04-25T10:59:53;5;4;
64627;PMS5003;68467;50.960;0.314;2023-04-25T11:02:21;3;3;
64627;PMS5003;68467;50.960;0.314;2023-04-25T11:04:53;3;3;
64627;PMS5003;68467;50.960;0.314;2023-04-25T11:07:25;4;3;
64627;PMS5003;68467;50.960;0.314;2023-04-25T11:10:01;3;3;
64627;PMS5003;68467;50.960;0.314;2023-04-25T11:12:29;4;4;
64627;PMS5003;68467;50.960;0.314;2023-04-25T11:14:59;3;2;
64627;PMS5003;68467;50.960;0.314;2023-04-25T11:17:27;2;2;
64627;PMS5003;68467;50.960;0.314;2023-04-25T11:19:55;1;1;
64627;PMS5003;68467;50.960;0.314;2023-04-25T11:22:24;4;3;
64627;PMS5003;68467;50.960;0.314;2023-04-25T11:24:52;1;1;
64627;PMS5003;68467;50.960;0.314;2023-04-25T11:27:20;2;2;
64627;PMS5003;68467;50.960;0.314;2023-04-25T11:29:48;4;3;
64627;PMS5003;68467;50.960;0.314;2023-04-25T11:32:17;5;3;
64627;PMS5003;68467;50.960;0.314;2023-04-25T11:34:45;4;4;
64627;PMS5003;68467;50.960;0.314;2023-04-25T11:37:13;6;6;
64627;PMS5003;68467;50.960;0.314;2023-04-25T11:39:43;4;3;
64627;PMS5003;68467;50.960;0.314;2023-04-25T11:42:11;5;5;
64627;PMS5003;68467;50.960;0.314;2023-04-25T11:44:44;4;3;
64627;PMS5003;68467;50.960;0.314;2023-04-25T11:47:11;2;2;
64627;PMS5003;68467;50.960;0.314;2023-04-25T11:49:38;4;4;
64627;PMS5003;68467;50.960;0.314;2023-04-25T11:52:06;1;1;
64627;PMS5003;68467;50.960;0.314;2023-04-25T11:54:35;3;3;
64627;PMS5003;68467;50.960;0.314;2023-04-25T11:57:02;4;4;
64627;PMS5003;68467;50.960;0.314;2023-04-25T11:59:31;3;3;
64627;PMS5003;68467;50.960;0.314;2023-04-25T12:01:58;4;3;
64627;PMS5003;68467;50.960;0.314;2023-04-25T12:04:25;4;4;
64627;PMS5003;68467;50.960;0.314;2023-04-25T12:06:53;1;1;
64627;PMS5003;68467;50.960;0.314;2023-04-25T12:09:21;3;2;
64627;PMS5003;68467;50.960;0.314;2023-04-25T12:11:56;3;3;
64627;PMS5003;68467;50.960;0.314;2023-04-25T12:14:26;5;4;
64627;PMS5003;68467;50.960;0.314;2023-04-25T12:16:55;4;3;
64627;PMS5003;68467;50.960;0.314;2023-04-25T12:19:23;5;4;
64627;PMS5003;68467;50.960;0.314;2023-04-25T12:21:51;5;4;
64627;PMS5003;68467;50.960;0.314;2023-04-25T12:24:21;3;3;
64627;PMS5003;68467;50.960;0.314;2023-04-25T12:26:50;4;3;
64627;PMS5003;68467;50.960;0.314;2023-04-25T12:29:19;4;4;
64627;PMS5003;68467;50.960;0.314;2023-04-25T12:31:48;4;4;
64627;PMS5003;68467;50.960;0.314;2023-04-25T12:34:17;5;5;
64627;PMS5003;68467;50.960;0.314;2023-04-25T12:36:45;2;2;
64627;PMS5003;68467;50.960;0.314;2023-04-25T12:39:15;4;4;
64627;PMS5003;68467;50.960;0.314;2023-04-25T12:41:43;3;3;
64627;PMS5003;68467;50.960;0.314;2023-04-25T12:44:11;4;4;
64627;PMS5003;68467;50.960;0.314;2023-04-25T12:46:39;3;3;
64627;PMS5003;68467;50.960;0.314;2023-04-25T12:49:08;3;3;
64627;PMS5003;68467;50.960;0.314;2023-04-25T12:51:36;2;2;
64627;PMS5003;68467;50.960;0.314;2023-04-25T12:54:04;5;3;
64627;PMS5003;68467;50.960;0.314;2023-04-25T12:56:32;2;2;
64627;PMS5003;68467;50.960;0.314;2023-04-25T12:58:59;3;3;
64627;PMS5003;68467;50.960;0.314;2023-04-25T13:01:27;3;3;
64627;PMS5003;68467;50.960;0.314;2023-04-25T13:03:55;4;3;
64627;PMS5003;68467;50.960;0.314;2023-04-25T13:06:22;3;3;
64627;PMS5003;68467;50.960;0.314;2023-04-25T13:08:50;4;4;
64627;PMS5003;68467;50.960;0.314;2023-04-25T13:11:17;4;4;
64627;PMS5003;68467;50.960;0.314;2023-04-25T13:13:44;3;2;
64627;PMS5003;68467;50.960;0.314;2023-04-25T13:16:11;3;3;
64627;PMS5003;68467;50.960;0.314;2023-04-25T13:18:39;4;3;
64627;PMS5003;68467;50.960;0.314;2023-04-25T13:21:07;2;2;
64627;PMS5003;68467;50.960;0.314;2023-04-25T13:23:36;2;2;
64627;PMS5003;68467;50.960;0.314;2023-04-25T13:26:04;3;3;
64627;PMS5003;68467;50.960;0.314;2023-04-25T13:28:31;6;4;
64627;PMS5003;68467;50.960;0.314;2023-04-25T13:30:59;5;4;
64627;PMS5003;68467;50.960;0.314;2023-04-25T13:33:26;3;3;
64627;PMS5003;68467;50.960;0.314;2023-04-25T13:35:54;2;2;
64627;PMS5003;68467;50.960;0.314;2023-04-25T13:38:21;3;2;
64627;PMS5003;68467;50.960;0.314;2023-04-25T13:40:49;3;3;
64627;PMS5003;68467;50.960;0.314;2023-04-25T13:43:18;3;3;
64627;PMS5003;68467;50.960;0.314;2023-04-25T13:45:46;2;2;
64627;PMS5003;68467;50.960;0.314;2023-04-25T13:48:13;2;2;
64627;PMS5003;68467;50.960;0.314;2023-04-25T13:50:41;4;3;
64627;PMS5003;68467;50.960;0.314;2023-04-25T13:53:08;3;3;
64627;PMS5003;68467;50.960;0.314;2023-04-25T13:55:36;1;1;
64627;PMS5003;68467;50.960;0.314;2023-04-25T13:58:04;3;3;
64627;PMS5003;68467;50.960;0.314;2023-04-25T14:00:32;3;3;
64627;PMS5003;68467;50.960;0.314;2023-04-25T14:03:00;4;3;
64627;PMS5003;68467;50.960;0.314;2023-04-25T14:05:27;4;3;
64627;PMS5003;68467;50.960;0.314;2023-04-25T14:07:55;3;3;
64627;PMS5003;68467;50.960;0.314;2023-04-25T14:10:23;4;4;
64627;PMS5003;68467;50.960;0.314;2023-04-25T14:12:51;4;4;
64627;PMS5003;68467;50.960;0.314;2023-04-25T14:15:18;2;2;
64627;PMS5003;68467;50.960;0.314;2023-04-25T14:17:46;3;3;
64627;PMS5003;68467;50.960;0.314;2023-04-25T14:20:13;3;2;
64627;PMS5003;68467;50.960;0.314;2023-04-25T14:22:41;4;4;
64627;PMS5003;68467;50.960;0.314;2023-04-25T14:25:08;4;3;
64627;PMS5003;68467;50.960;0.314;2023-04-25T14:27:36;2;2;
64627;PMS5003;68467;50.960;0.314;2023-04-25T14:30:04;5;4;
64627;PMS5003;68467;50.960;0.314;2023-04-25T14:32:32;5;5;
64627;PMS5003;68467;50.960;0.314;2023-04-25T14:34:59;3;3;
64627;PMS5003;68467;50.960;0.314;2023-04-25T14:37:27;4;4;
64627;PMS5003;68467;50.960;0.314;2023-04-25T14:39:54;4;4;
64627;PMS5003;68467;50.960;0.314;2023-04-25T14:42:21;3;3;
64627;PMS5003;68467;50.960;0.314;2023-04-25T14:44:49;6;4;
64627;PMS5003;68467;50.960;0.314;2023-04-25T14:47:16;4;4;
64627;PMS5003;68467;50.960;0.314;2023-04-25T14:49:44;4;4;
64627;PMS5003;68467;50.960;0.314;2023-04-25T14:52:11;3;3;
64627;PMS5003;68467;50.960;0.314;2023-04-25T14:54:39;5;5;
64627;PMS5003;68467;50.960;0.314;2023-04-25T14:57:06;3;3;
64627;PMS5003;68467;50.960;0.314;2023-04-25T14:59:34;4;4;
64627;PMS5003;68467;50.960;0.314;2023-04-25T15:02:01;5;5;
64627;PMS5003;68467;50.960;0.314;2023-04-25T15:04:28;6;6;
64627;PMS5003;68467;50.960;0.314;2023-04-25T15:06:56;3;3;
64627;PMS5003;68467;50.960;0.314;2023-04-25T15:09:23;5;3;
64627;PMS5003;68467;50.960;0.314;2023-04-25T15:11:51;3;3;
64627;PMS5003;68467;50.960;0.314;2023-04-25T15:14:18;4;3;
64627;PMS5003;68467;50.960;0.314;2023-04-25T15:16:45;5;5;
64627;PMS5003;68467;50.960;0.314;2023-04-25T15:19:12;7;7;
64627;PMS5003;68467;50.960;0.314;2023-04-25T15:21:40;5;5;
64627;PMS5003;68467;50.960;0.314;2023-04-25T15:24:08;4;4;
64627;PMS5003;68467;50.960;0.314;2023-04-25T15:26:36;3;3;
64627;PMS5003;68467;50.960;0.314;2023-04-25T15:29:03;3;3;
64627;PMS5003;68467;50.960;0.314;2023-04-25T15:31:31;5;5;
64627;PMS5003;68467;50.960;0.314;2023-04-25T15:33:58;4;4;
64627;PMS5003;68467;50.960;0.314;2023-04-25T15:36:26;7;7;
64627;PMS5003;68467;50.960;0.314;2023-04-25T15:38:53;4;4;
64627;PMS5003;68467;50.960;0.314;2023-04-25T15:41:20;5;5;
64627;PMS5003;68467;50.960;0.314;2023-04-25T15:43:48;5;5;
64627;PMS5003;68467;50.960;0.314;2023-04-25T15:46:16;6;5;
64627;PMS5003;68467;50.960;0.314;2023-04-25T15:48:43;4;4;
64627;PMS5003;68467;50.960;0.314;2023-04-25T15:51:11;2;2;
64627;PMS5003;68467;50.960;0.314;2023-04-25T15:53:39;4;4;
64627;PMS5003;68467;50.960;0.314;2023-04-25T15:56:07;4;3;
64627;PMS5003;68467;50.960;0.314;2023-04-25T15:58:35;4;4;
64627;PMS5003;68467;50.960;0.314;2023-04-25T16:01:02;3;3;
64627;PMS5003;68467;50.960;0.314;2023-04-25T16:03:29;4;4;
64627;PMS5003;68467;50.960;0.314;2023-04-25T16:05:57;3;3;
64627;PMS5003;68467;50.960;0.314;2023-04-25T16:08:24;4;4;
64627;PMS5003;68467;50.960;0.314;2023-04-25T16:10:52;4;3;
64627;PMS5003;68467;50.960;0.314;2023-04-25T16:13:19;3;3;
64627;PMS5003;68467;50.960;0.314;2023-04-25T16:15:46;3;3;
64627;PMS5003;68467;50.960;0.314;2023-04-25T16:18:14;3;3;
64627;PMS5003;68467;50.960;0.314;2023-04-25T16:20:41;5;4;
64627;PMS5003;68467;50.960;0.314;2023-04-25T16:23:08;5;4;
64627;PMS5003;68467;50.960;0.314;2023-04-25T16:25:36;5;5;
64627;PMS5003;68467;50.960;0.314;2023-04-25T16:28:03;11;11;
64627;PMS5003;68467;50.960;0.314;2023-04-25T16:30:31;5;5;
64627;PMS5003;68467;50.960;0.314;2023-04-25T16:32:58;7;5;
64627;PMS5003;68467;50.960;0.314;2023-04-25T16:35:25;4;4;
64627;PMS5003;68467;50.960;0.314;2023-04-25T16:37:52;5;4;
64627;PMS5003;68467;50.960;0.314;2023-04-25T16:40:19;5;5;
64627;PMS5003;68467;50.960;0.314;2023-04-25T16:42:46;6;5;
64627;PMS5003;68467;50.960;0.314;2023-04-25T16:45:14;5;4;
64627;PMS5003;68467;50.960;0.314;2023-04-25T16:47:41;10;7;
64627;PMS5003;68467;50.960;0.314;2023-04-25T16:50:08;4;4;
64627;PMS5003;68467;50.960;0.314;2023-04-25T16:52:36;4;4;
64627;PMS5003;68467;50.960;0.314;2023-04-25T16:55:04;4;3;